sensor_id;sensor_type;location;lat;lon;timestamp;P1;durP1;ratioP1;P2;durP2;ratioP2
29574;SDS011;16507;51.046;6.406;2022-12-07T00:01:08;38.08;;;18.35;;
29574;SDS011;16507;51.046;6.406;2022-12-07T00:03:39;30.25;;;17.92;;
29574;SDS011;16507;51.046;6.406;2022-12-07T00:06:06;39.80;;;18.58;;
29574;SDS011;16507;51.046;6.406;2022-12-07T00:08:34;34.15;;;18.45;;
29574;SDS011;16507;51.046;6.406;2022-12-07T00:11:01;35.83;;;18.55;;
29574;SDS011;16507;51.046;6.406;2022-12-07T00:13:28;35.58;;;18.85;;
29574;SDS011;16507;51.046;6.406;2022-12-07T00:15:55;35.33;;;18.83;;
29574;SDS011;16507;51.046;6.406;2022-12-07T00:18:20;31.05;;;18.08;;
29574;SDS011;16507;51.046;6.406;2022-12-07T00:20:46;38.55;;;19.13;;
29574;SDS011;16507;51.046;6.406;2022-12-07T00:23:12;31.08;;;18.65;;
29574;SDS011;16507;51.046;6.406;2022-12-07T00:25:37;34.40;;;18.63;;
29574;SDS011;16507;51.046;6.406;2022-12-07T00:28:03;36.33;;;18.70;;
29574;SDS011;16507;51.046;6.406;2022-12-07T00:30:29;43.22;;;20.02;;
29574;SDS011;16507;51.046;6.406;2022-12-07T00:32:54;35.47;;;20.25;;
29574;SDS011;16507;51.046;6.406;2022-12-07T00:35:20;34.30;;;19.05;;
29574;SDS011;16507;51.046;6.406;2022-12-07T00:37:45;41.80;;;20.35;;
29574;SDS011;16507;51.046;6.406;2022-12-07T00:40:11;33.70;;;20.58;;
29574;SDS011;16507;51.046;6.406;2022-12-07T00:42:37;40.53;;;21.00;;
29574;SDS011;16507;51.046;6.406;2022-12-07T00:45:02;47.22;;;21.17;;
29574;SDS011;16507;51.046;6.406;2022-12-07T00:47:28;35.70;;;20.63;;
29574;SDS011;16507;51.046;6.406;2022-12-07T00:49:54;37.30;;;20.70;;
29574;SDS011;16507;51.046;6.406;2022-12-07T00:52:19;36.85;;;20.67;;
29574;SDS011;16507;51.046;6.406;2022-12-07T00:54:45;34.58;;;20.15;;
29574;SDS011;16507;51.046;6.406;2022-12-07T00:57:10;36.20;;;20.17;;
29574;SDS011;16507;51.046;6.406;2022-12-07T00:59:36;35.35;;;21.63;;
29574;SDS011;16507;51.046;6.406;2022-12-07T01:02:02;41.03;;;21.17;;
29574;SDS011;16507;51.046;6.406;2022-12-07T01:04:27;36.78;;;21.60;;
29574;SDS011;16507;51.046;6.406;2022-12-07T01:06:53;43.60;;;21.40;;
29574;SDS011;16507;51.046;6.406;2022-12-07T01:09:18;40.30;;;20.52;;
29574;SDS011;16507;51.046;6.406;2022-12-07T01:11:44;34.92;;;18.52;;
29574;SDS011;16507;51.046;6.406;2022-12-07T01:14:09;40.22;;;19.88;;
29574;SDS011;16507;51.046;6.406;2022-12-07T01:16:35;48.80;;;20.58;;
29574;SDS011;16507;51.046;6.406;2022-12-07T01:19:01;37.90;;;20.27;;
29574;SDS011;16507;51.046;6.406;2022-12-07T01:21:30;34.15;;;19.48;;
29574;SDS011;16507;51.046;6.406;2022-12-07T01:24:01;40.63;;;20.83;;
29574;SDS011;16507;51.046;6.406;2022-12-07T01:26:27;34.78;;;20.67;;
29574;SDS011;16507;51.046;6.406;2022-12-07T01:28:53;37.22;;;20.50;;
29574;SDS011;16507;51.046;6.406;2022-12-07T01:31:20;37.25;;;21.38;;
29574;SDS011;16507;51.046;6.406;2022-12-07T01:33:48;45.22;;;21.17;;
29574;SDS011;16507;51.046;6.406;2022-12-07T01:36:22;38.50;;;21.58;;
29574;SDS011;16507;51.046;6.406;2022-12-07T01:39:00;37.53;;;22.15;;
29574;SDS011;16507;51.046;6.406;2022-12-07T01:41:28;38.30;;;22.65;;
29574;SDS011;16507;51.046;6.406;2022-12-07T01:46:36;50.30;;;23.52;;
29574;SDS011;16507;51.046;6.406;2022-12-07T01:49:02;38.33;;;22.92;;
29574;SDS011;16507;51.046;6.406;2022-12-07T01:51:31;44.38;;;24.48;;
29574;SDS011;16507;51.046;6.406;2022-12-07T01:53:56;42.28;;;24.73;;
29574;SDS011;16507;51.046;6.406;2022-12-07T01:56:24;55.35;;;25.73;;
29574;SDS011;16507;51.046;6.406;2022-12-07T01:58:51;41.42;;;24.17;;
29574;SDS011;16507;51.046;6.406;2022-12-07T02:01:19;51.13;;;26.73;;
29574;SDS011;16507;51.046;6.406;2022-12-07T02:03:45;44.63;;;25.65;;
29574;SDS011;16507;51.046;6.406;2022-12-07T02:06:12;45.35;;;26.08;;
29574;SDS011;16507;51.046;6.406;2022-12-07T02:08:41;52.63;;;28.10;;
29574;SDS011;16507;51.046;6.406;2022-12-07T02:11:08;49.88;;;26.75;;
29574;SDS011;16507;51.046;6.406;2022-12-07T02:13:35;52.45;;;28.77;;
29574;SDS011;16507;51.046;6.406;2022-12-07T02:29:47;49.08;;;27.20;;
29574;SDS011;16507;51.046;6.406;2022-12-07T02:35:11;50.40;;;28.80;;
29574;SDS011;16507;51.046;6.406;2022-12-07T02:41:26;53.17;;;30.48;;
29574;SDS011;16507;51.046;6.406;2022-12-07T02:43:41;54.65;;;27.40;;
29574;SDS011;16507;51.046;6.406;2022-12-07T02:46:12;49.08;;;27.83;;
29574;SDS011;16507;51.046;6.406;2022-12-07T02:48:41;52.05;;;29.20;;
29574;SDS011;16507;51.046;6.406;2022-12-07T02:51:08;52.65;;;28.27;;
29574;SDS011;16507;51.046;6.406;2022-12-07T02:53:35;49.72;;;27.75;;
29574;SDS011;16507;51.046;6.406;2022-12-07T02:56:05;46.95;;;26.75;;
29574;SDS011;16507;51.046;6.406;2022-12-07T03:07:45;50.60;;;27.85;;
29574;SDS011;16507;51.046;6.406;2022-12-07T03:10:27;62.87;;;30.63;;
29574;SDS011;16507;51.046;6.406;2022-12-07T03:13:38;53.97;;;28.67;;
29574;SDS011;16507;51.046;6.406;2022-12-07T03:16:18;56.38;;;30.65;;
29574;SDS011;16507;51.046;6.406;2022-12-07T03:18:51;53.83;;;29.80;;
29574;SDS011;16507;51.046;6.406;2022-12-07T03:21:26;57.00;;;31.50;;
29574;SDS011;16507;51.046;6.406;2022-12-07T03:23:56;50.13;;;30.38;;
29574;SDS011;16507;51.046;6.406;2022-12-07T03:26:30;57.08;;;31.25;;
29574;SDS011;16507;51.046;6.406;2022-12-07T03:29:00;51.35;;;30.80;;
29574;SDS011;16507;51.046;6.406;2022-12-07T03:34:01;50.40;;;28.63;;
29574;SDS011;16507;51.046;6.406;2022-12-07T03:37:12;54.53;;;30.00;;
29574;SDS011;16507;51.046;6.406;2022-12-07T03:42:12;57.78;;;29.42;;
29574;SDS011;16507;51.046;6.406;2022-12-07T03:44:38;52.45;;;30.17;;
29574;SDS011;16507;51.046;6.406;2022-12-07T03:52:31;50.58;;;28.00;;
29574;SDS011;16507;51.046;6.406;2022-12-07T03:57:52;52.70;;;28.42;;
29574;SDS011;16507;51.046;6.406;2022-12-07T04:00:22;46.88;;;27.25;;
29574;SDS011;16507;51.046;6.406;2022-12-07T04:02:50;49.78;;;28.13;;
29574;SDS011;16507;51.046;6.406;2022-12-07T04:05:17;50.22;;;28.20;;
29574;SDS011;16507;51.046;6.406;2022-12-07T04:07:43;43.92;;;27.55;;
29574;SDS011;16507;51.046;6.406;2022-12-07T04:10:08;48.45;;;27.25;;
29574;SDS011;16507;51.046;6.406;2022-12-07T04:12:35;50.28;;;26.98;;
29574;SDS011;16507;51.046;6.406;2022-12-07T04:15:00;49.20;;;27.90;;
29574;SDS011;16507;51.046;6.406;2022-12-07T04:17:26;48.55;;;27.67;;
29574;SDS011;16507;51.046;6.406;2022-12-07T04:19:51;51.63;;;29.13;;
29574;SDS011;16507;51.046;6.406;2022-12-07T04:22:17;49.72;;;27.20;;
29574;SDS011;16507;51.046;6.406;2022-12-07T04:24:43;55.35;;;27.85;;
29574;SDS011;16507;51.046;6.406;2022-12-07T04:27:08;52.50;;;27.48;;
29574;SDS011;16507;51.046;6.406;2022-12-07T04:29:34;49.88;;;28.65;;
29574;SDS011;16507;51.046;6.406;2022-12-07T04:31:59;63.90;;;29.48;;
29574;SDS011;16507;51.046;6.406;2022-12-07T04:34:25;61.63;;;30.17;;
29574;SDS011;16507;51.046;6.406;2022-12-07T04:36:51;55.75;;;30.23;;
29574;SDS011;16507;51.046;6.406;2022-12-07T04:39:29;65.07;;;30.90;;
29574;SDS011;16507;51.046;6.406;2022-12-07T04:41:56;60.65;;;30.23;;
29574;SDS011;16507;51.046;6.406;2022-12-07T04:44:23;53.53;;;30.42;;
29574;SDS011;16507;51.046;6.406;2022-12-07T04:46:50;56.33;;;30.95;;
29574;SDS011;16507;51.046;6.406;2022-12-07T04:49:16;61.35;;;32.40;;
29574;SDS011;16507;51.046;6.406;2022-12-07T04:51:43;64.40;;;33.10;;
29574;SDS011;16507;51.046;6.406;2022-12-07T04:54:09;60.75;;;31.55;;
29574;SDS011;16507;51.046;6.406;2022-12-07T04:56:35;60.92;;;31.65;;
29574;SDS011;16507;51.046;6.406;2022-12-07T04:59:02;59.90;;;31.15;;
29574;SDS011;16507;51.046;6.406;2022-12-07T05:01:28;61.15;;;31.00;;
29574;SDS011;16507;51.046;6.406;2022-12-07T05:03:54;62.08;;;32.42;;
29574;SDS011;16507;51.046;6.406;2022-12-07T05:06:20;62.03;;;32.05;;
29574;SDS011;16507;51.046;6.406;2022-12-07T05:08:46;58.08;;;30.92;;
29574;SDS011;16507;51.046;6.406;2022-12-07T05:11:11;64.60;;;31.88;;
29574;SDS011;16507;51.046;6.406;2022-12-07T05:13:57;56.17;;;31.63;;
29574;SDS011;16507;51.046;6.406;2022-12-07T05:16:23;60.78;;;33.13;;
29574;SDS011;16507;51.046;6.406;2022-12-07T05:18:50;62.63;;;34.03;;
29574;SDS011;16507;51.046;6.406;2022-12-07T05:21:16;64.20;;;33.67;;
29574;SDS011;16507;51.046;6.406;2022-12-07T05:23:41;67.93;;;33.35;;
29574;SDS011;16507;51.046;6.406;2022-12-07T05:26:07;62.58;;;32.90;;
29574;SDS011;16507;51.046;6.406;2022-12-07T05:28:33;64.70;;;33.58;;
29574;SDS011;16507;51.046;6.406;2022-12-07T05:30:58;58.53;;;32.28;;
29574;SDS011;16507;51.046;6.406;2022-12-07T05:33:24;58.85;;;31.25;;
29574;SDS011;16507;51.046;6.406;2022-12-07T05:35:49;56.95;;;31.88;;
29574;SDS011;16507;51.046;6.406;2022-12-07T05:38:15;60.38;;;32.40;;
29574;SDS011;16507;51.046;6.406;2022-12-07T05:40:40;75.25;;;32.55;;
29574;SDS011;16507;51.046;6.406;2022-12-07T05:43:06;63.15;;;33.60;;
29574;SDS011;16507;51.046;6.406;2022-12-07T05:45:32;66.70;;;32.38;;
29574;SDS011;16507;51.046;6.406;2022-12-07T05:47:57;68.32;;;33.30;;
29574;SDS011;16507;51.046;6.406;2022-12-07T05:50:23;59.60;;;32.08;;
29574;SDS011;16507;51.046;6.406;2022-12-07T05:52:48;58.58;;;31.40;;
29574;SDS011;16507;51.046;6.406;2022-12-07T05:55:14;58.55;;;29.25;;
29574;SDS011;16507;51.046;6.406;2022-12-07T05:57:40;63.45;;;29.70;;
29574;SDS011;16507;51.046;6.406;2022-12-07T06:00:25;55.10;;;29.38;;
29574;SDS011;16507;51.046;6.406;2022-12-07T06:02:51;53.05;;;30.48;;
29574;SDS011;16507;51.046;6.406;2022-12-07T06:05:16;52.40;;;29.00;;
29574;SDS011;16507;51.046;6.406;2022-12-07T06:07:42;56.47;;;29.63;;
29574;SDS011;16507;51.046;6.406;2022-12-07T06:10:08;54.75;;;29.50;;
29574;SDS011;16507;51.046;6.406;2022-12-07T06:12:34;52.17;;;29.23;;
29574;SDS011;16507;51.046;6.406;2022-12-07T06:14:59;51.58;;;28.52;;
29574;SDS011;16507;51.046;6.406;2022-12-07T06:17:25;50.25;;;28.55;;
29574;SDS011;16507;51.046;6.406;2022-12-07T06:19:51;57.05;;;28.58;;
29574;SDS011;16507;51.046;6.406;2022-12-07T06:22:16;48.13;;;28.17;;
29574;SDS011;16507;51.046;6.406;2022-12-07T06:24:43;44.67;;;27.15;;
29574;SDS011;16507;51.046;6.406;2022-12-07T06:27:08;46.25;;;27.35;;
29574;SDS011;16507;51.046;6.406;2022-12-07T06:29:34;49.47;;;27.92;;
29574;SDS011;16507;51.046;6.406;2022-12-07T06:32:00;50.40;;;27.20;;
29574;SDS011;16507;51.046;6.406;2022-12-07T06:34:26;47.38;;;27.17;;
29574;SDS011;16507;51.046;6.406;2022-12-07T06:36:52;48.75;;;27.02;;
29574;SDS011;16507;51.046;6.406;2022-12-07T06:39:24;43.45;;;25.92;;
29574;SDS011;16507;51.046;6.406;2022-12-07T06:41:51;45.13;;;26.35;;
29574;SDS011;16507;51.046;6.406;2022-12-07T06:44:18;46.70;;;26.30;;
29574;SDS011;16507;51.046;6.406;2022-12-07T06:46:44;56.78;;;26.13;;
29574;SDS011;16507;51.046;6.406;2022-12-07T06:49:10;46.35;;;25.42;;
29574;SDS011;16507;51.046;6.406;2022-12-07T06:51:36;45.55;;;25.05;;
29574;SDS011;16507;51.046;6.406;2022-12-07T06:54:06;41.20;;;25.35;;
29574;SDS011;16507;51.046;6.406;2022-12-07T06:56:32;43.92;;;25.52;;
29574;SDS011;16507;51.046;6.406;2022-12-07T06:58:58;45.70;;;24.70;;
29574;SDS011;16507;51.046;6.406;2022-12-07T07:01:23;67.22;;;26.55;;
29574;SDS011;16507;51.046;6.406;2022-12-07T07:03:49;46.25;;;25.88;;
29574;SDS011;16507;51.046;6.406;2022-12-07T07:06:14;51.90;;;25.98;;
29574;SDS011;16507;51.046;6.406;2022-12-07T07:08:40;44.45;;;25.35;;
29574;SDS011;16507;51.046;6.406;2022-12-07T07:11:06;47.72;;;24.65;;
29574;SDS011;16507;51.046;6.406;2022-12-07T07:13:33;53.13;;;26.58;;
29574;SDS011;16507;51.046;6.406;2022-12-07T07:15:59;49.80;;;25.60;;
29574;SDS011;16507;51.046;6.406;2022-12-07T07:18:25;50.85;;;26.15;;
29574;SDS011;16507;51.046;6.406;2022-12-07T07:20:51;53.38;;;27.00;;
29574;SDS011;16507;51.046;6.406;2022-12-07T07:23:17;50.03;;;28.20;;
29574;SDS011;16507;51.046;6.406;2022-12-07T07:25:44;48.67;;;26.40;;
29574;SDS011;16507;51.046;6.406;2022-12-07T07:28:10;44.33;;;26.15;;
29574;SDS011;16507;51.046;6.406;2022-12-07T07:30:36;53.25;;;27.60;;
29574;SDS011;16507;51.046;6.406;2022-12-07T07:33:02;44.40;;;24.63;;
29574;SDS011;16507;51.046;6.406;2022-12-07T07:35:29;46.35;;;24.73;;
29574;SDS011;16507;51.046;6.406;2022-12-07T07:37:55;41.88;;;25.77;;
29574;SDS011;16507;51.046;6.406;2022-12-07T07:40:21;52.40;;;25.48;;
29574;SDS011;16507;51.046;6.406;2022-12-07T07:42:50;51.78;;;25.02;;
29574;SDS011;16507;51.046;6.406;2022-12-07T07:45:17;48.60;;;24.08;;
29574;SDS011;16507;51.046;6.406;2022-12-07T07:47:43;55.20;;;25.88;;
29574;SDS011;16507;51.046;6.406;2022-12-07T07:50:09;45.42;;;27.30;;
29574;SDS011;16507;51.046;6.406;2022-12-07T07:52:34;50.63;;;26.63;;
29574;SDS011;16507;51.046;6.406;2022-12-07T07:55:00;49.45;;;27.00;;
29574;SDS011;16507;51.046;6.406;2022-12-07T07:57:26;48.75;;;26.88;;
29574;SDS011;16507;51.046;6.406;2022-12-07T07:59:52;54.83;;;26.70;;
29574;SDS011;16507;51.046;6.406;2022-12-07T08:02:20;54.17;;;26.58;;
29574;SDS011;16507;51.046;6.406;2022-12-07T08:04:49;48.80;;;24.92;;
29574;SDS011;16507;51.046;6.406;2022-12-07T08:07:15;50.22;;;24.75;;
29574;SDS011;16507;51.046;6.406;2022-12-07T08:09:41;49.58;;;24.52;;
29574;SDS011;16507;51.046;6.406;2022-12-07T08:12:06;49.75;;;26.25;;
29574;SDS011;16507;51.046;6.406;2022-12-07T08:14:33;49.40;;;23.92;;
29574;SDS011;16507;51.046;6.406;2022-12-07T08:16:59;47.42;;;24.23;;
29574;SDS011;16507;51.046;6.406;2022-12-07T08:19:25;45.55;;;24.42;;
29574;SDS011;16507;51.046;6.406;2022-12-07T08:21:51;41.75;;;23.70;;
29574;SDS011;16507;51.046;6.406;2022-12-07T08:24:16;51.92;;;23.92;;
29574;SDS011;16507;51.046;6.406;2022-12-07T08:26:42;49.15;;;23.98;;
29574;SDS011;16507;51.046;6.406;2022-12-07T08:29:08;50.80;;;24.95;;
29574;SDS011;16507;51.046;6.406;2022-12-07T08:31:33;42.63;;;23.05;;
29574;SDS011;16507;51.046;6.406;2022-12-07T08:33:59;44.65;;;23.73;;
29574;SDS011;16507;51.046;6.406;2022-12-07T08:36:25;46.15;;;24.05;;
29574;SDS011;16507;51.046;6.406;2022-12-07T10:20:08;41.55;;;23.45;;
29574;SDS011;16507;51.046;6.406;2022-12-07T10:22:58;53.03;;;22.48;;
29574;SDS011;16507;51.046;6.406;2022-12-07T10:25:31;37.80;;;21.55;;
29574;SDS011;16507;51.046;6.406;2022-12-07T10:27:59;39.20;;;19.80;;
29574;SDS011;16507;51.046;6.406;2022-12-07T10:30:28;35.20;;;18.90;;
29574;SDS011;16507;51.046;6.406;2022-12-07T10:32:54;36.92;;;19.10;;
29574;SDS011;16507;51.046;6.406;2022-12-07T10:35:22;34.35;;;19.30;;
29574;SDS011;16507;51.046;6.406;2022-12-07T10:37:51;36.40;;;19.67;;
29574;SDS011;16507;51.046;6.406;2022-12-07T10:43:02;43.47;;;20.30;;
29574;SDS011;16507;51.046;6.406;2022-12-07T10:45:57;41.30;;;20.15;;
29574;SDS011;16507;51.046;6.406;2022-12-07T10:52:40;38.08;;;21.20;;
29574;SDS011;16507;51.046;6.406;2022-12-07T10:57:30;44.85;;;22.83;;
29574;SDS011;16507;51.046;6.406;2022-12-07T11:00:23;46.75;;;22.30;;
29574;SDS011;16507;51.046;6.406;2022-12-07T11:08:13;35.65;;;21.60;;
29574;SDS011;16507;51.046;6.406;2022-12-07T11:13:18;41.10;;;20.75;;
29574;SDS011;16507;51.046;6.406;2022-12-07T11:18:52;31.00;;;18.55;;
29574;SDS011;16507;51.046;6.406;2022-12-07T11:21:28;32.92;;;17.73;;
29574;SDS011;16507;51.046;6.406;2022-12-07T11:29:22;36.33;;;18.25;;
29574;SDS011;16507;51.046;6.406;2022-12-07T11:37:17;30.73;;;16.10;;
29574;SDS011;16507;51.046;6.406;2022-12-07T11:42:21;25.02;;;15.55;;
29574;SDS011;16507;51.046;6.406;2022-12-07T11:53:01;30.00;;;12.57;;
29574;SDS011;16507;51.046;6.406;2022-12-07T11:55:54;26.30;;;14.48;;
29574;SDS011;16507;51.046;6.406;2022-12-07T12:06:37;28.05;;;11.48;;
29574;SDS011;16507;51.046;6.406;2022-12-07T12:11:44;20.27;;;8.80;;
29574;SDS011;16507;51.046;6.406;2022-12-07T12:17:21;16.45;;;9.98;;
29574;SDS011;16507;51.046;6.406;2022-12-07T12:23:27;20.00;;;11.20;;
29574;SDS011;16507;51.046;6.406;2022-12-07T12:33:30;19.50;;;8.07;;
29574;SDS011;16507;51.046;6.406;2022-12-07T12:47:01;25.08;;;13.10;;
29574;SDS011;16507;51.046;6.406;2022-12-07T12:49:33;23.38;;;12.65;;
29574;SDS011;16507;51.046;6.406;2022-12-07T12:57:33;19.20;;;10.75;;
29574;SDS011;16507;51.046;6.406;2022-12-07T13:00:01;21.95;;;10.20;;
29574;SDS011;16507;51.046;6.406;2022-12-07T13:02:50;20.83;;;10.55;;
29574;SDS011;16507;51.046;6.406;2022-12-07T13:05:19;25.55;;;10.60;;
29574;SDS011;16507;51.046;6.406;2022-12-07T13:15:43;13.10;;;7.00;;
29574;SDS011;16507;51.046;6.406;2022-12-07T13:18:35;11.00;;;6.90;;
29574;SDS011;16507;51.046;6.406;2022-12-07T13:23:35;22.58;;;6.47;;
29574;SDS011;16507;51.046;6.406;2022-12-07T13:26:38;11.40;;;7.18;;
29574;SDS011;16507;51.046;6.406;2022-12-07T13:29:17;12.63;;;6.75;;
29574;SDS011;16507;51.046;6.406;2022-12-07T13:31:52;15.70;;;6.68;;
29574;SDS011;16507;51.046;6.406;2022-12-07T13:34:35;16.52;;;6.75;;
29574;SDS011;16507;51.046;6.406;2022-12-07T13:37:02;17.75;;;6.88;;
29574;SDS011;16507;51.046;6.406;2022-12-07T13:39:46;16.30;;;6.60;;
29574;SDS011;16507;51.046;6.406;2022-12-07T13:42:35;15.00;;;6.47;;
29574;SDS011;16507;51.046;6.406;2022-12-07T13:45:01;11.55;;;5.75;;
29574;SDS011;16507;51.046;6.406;2022-12-07T13:47:52;12.70;;;6.20;;
29574;SDS011;16507;51.046;6.406;2022-12-07T13:50:23;14.65;;;6.90;;
29574;SDS011;16507;51.046;6.406;2022-12-07T13:52:50;15.95;;;6.78;;
29574;SDS011;16507;51.046;6.406;2022-12-07T13:55:20;16.75;;;7.68;;
29574;SDS011;16507;51.046;6.406;2022-12-07T13:57:47;26.70;;;7.97;;
29574;SDS011;16507;51.046;6.406;2022-12-07T14:00:17;13.63;;;7.20;;
29574;SDS011;16507;51.046;6.406;2022-12-07T14:06:02;10.32;;;6.65;;
29574;SDS011;16507;51.046;6.406;2022-12-07T14:08:32;14.77;;;6.53;;
29574;SDS011;16507;51.046;6.406;2022-12-07T14:10:58;13.63;;;5.90;;
29574;SDS011;16507;51.046;6.406;2022-12-07T14:13:35;19.25;;;6.75;;
29574;SDS011;16507;51.046;6.406;2022-12-07T14:16:17;12.77;;;5.82;;
29574;SDS011;16507;51.046;6.406;2022-12-07T14:18:44;13.98;;;6.53;;
29574;SDS011;16507;51.046;6.406;2022-12-07T14:21:18;12.90;;;6.10;;
29574;SDS011;16507;51.046;6.406;2022-12-07T14:24:01;10.23;;;5.95;;
29574;SDS011;16507;51.046;6.406;2022-12-07T14:26:35;13.88;;;5.57;;
29574;SDS011;16507;51.046;6.406;2022-12-07T14:31:49;12.18;;;6.40;;
29574;SDS011;16507;51.046;6.406;2022-12-07T14:34:16;14.75;;;6.90;;
29574;SDS011;16507;51.046;6.406;2022-12-07T14:36:44;11.10;;;5.30;;
29574;SDS011;16507;51.046;6.406;2022-12-07T14:39:09;11.48;;;4.15;;
29574;SDS011;16507;51.046;6.406;2022-12-07T14:41:35;4.80;;;3.83;;
29574;SDS011;16507;51.046;6.406;2022-12-07T14:44:16;6.47;;;4.03;;
29574;SDS011;16507;51.046;6.406;2022-12-07T14:46:47;8.18;;;4.20;;
29574;SDS011;16507;51.046;6.406;2022-12-07T14:49:14;15.35;;;4.55;;
29574;SDS011;16507;51.046;6.406;2022-12-07T14:51:40;13.43;;;4.40;;
29574;SDS011;16507;51.046;6.406;2022-12-07T14:54:12;5.32;;;4.70;;
29574;SDS011;16507;51.046;6.406;2022-12-07T14:56:41;10.02;;;4.65;;
29574;SDS011;16507;51.046;6.406;2022-12-07T14:59:08;8.40;;;4.07;;
29574;SDS011;16507;51.046;6.406;2022-12-07T15:01:34;6.93;;;3.67;;
29574;SDS011;16507;51.046;6.406;2022-12-07T15:04:00;9.27;;;4.43;;
29574;SDS011;16507;51.046;6.406;2022-12-07T15:06:25;6.60;;;4.43;;
29574;SDS011;16507;51.046;6.406;2022-12-07T15:08:51;7.35;;;5.07;;
29574;SDS011;16507;51.046;6.406;2022-12-07T15:11:17;7.32;;;4.82;;
29574;SDS011;16507;51.046;6.406;2022-12-07T15:13:43;6.60;;;4.10;;
29574;SDS011;16507;51.046;6.406;2022-12-07T15:16:27;6.18;;;4.00;;
29574;SDS011;16507;51.046;6.406;2022-12-07T15:18:53;4.70;;;4.00;;
29574;SDS011;16507;51.046;6.406;2022-12-07T15:21:18;3.97;;;3.60;;
29574;SDS011;16507;51.046;6.406;2022-12-07T15:23:45;6.38;;;4.28;;
29574;SDS011;16507;51.046;6.406;2022-12-07T15:26:12;5.88;;;4.28;;
29574;SDS011;16507;51.046;6.406;2022-12-07T15:28:39;5.95;;;4.47;;
29574;SDS011;16507;51.046;6.406;2022-12-07T15:31:15;6.78;;;4.95;;
29574;SDS011;16507;51.046;6.406;2022-12-07T15:33:42;7.78;;;5.10;;
29574;SDS011;16507;51.046;6.406;2022-12-07T15:36:09;46.03;;;8.05;;
29574;SDS011;16507;51.046;6.406;2022-12-07T15:38:46;11.43;;;8.30;;
29574;SDS011;16507;51.046;6.406;2022-12-07T15:41:11;27.40;;;8.93;;
29574;SDS011;16507;51.046;6.406;2022-12-07T15:43:37;17.55;;;9.15;;
29574;SDS011;16507;51.046;6.406;2022-12-07T15:46:21;14.98;;;8.73;;
29574;SDS011;16507;51.046;6.406;2022-12-07T15:48:47;20.63;;;9.65;;
29574;SDS011;16507;51.046;6.406;2022-12-07T15:51:12;22.17;;;8.90;;
29574;SDS011;16507;51.046;6.406;2022-12-07T15:53:38;22.73;;;9.77;;
29574;SDS011;16507;51.046;6.406;2022-12-07T15:56:07;19.90;;;9.25;;
29574;SDS011;16507;51.046;6.406;2022-12-07T15:58:33;28.35;;;9.88;;
29574;SDS011;16507;51.046;6.406;2022-12-07T16:00:59;20.20;;;9.73;;
29574;SDS011;16507;51.046;6.406;2022-12-07T16:03:26;15.10;;;9.05;;
29574;SDS011;16507;51.046;6.406;2022-12-07T16:05:52;14.85;;;10.13;;
29574;SDS011;16507;51.046;6.406;2022-12-07T16:08:18;26.58;;;10.68;;
29574;SDS011;16507;51.046;6.406;2022-12-07T16:10:44;28.10;;;11.90;;
29574;SDS011;16507;51.046;6.406;2022-12-07T16:13:09;23.08;;;11.32;;
29574;SDS011;16507;51.046;6.406;2022-12-07T16:15:39;25.42;;;12.25;;
29574;SDS011;16507;51.046;6.406;2022-12-07T16:18:05;25.50;;;11.93;;
29574;SDS011;16507;51.046;6.406;2022-12-07T16:20:31;20.40;;;11.45;;
29574;SDS011;16507;51.046;6.406;2022-12-07T16:22:56;25.33;;;11.75;;
29574;SDS011;16507;51.046;6.406;2022-12-07T16:25:22;24.77;;;12.40;;
29574;SDS011;16507;51.046;6.406;2022-12-07T16:27:47;29.08;;;13.20;;
29574;SDS011;16507;51.046;6.406;2022-12-07T16:30:14;33.78;;;13.05;;
29574;SDS011;16507;51.046;6.406;2022-12-07T16:32:41;33.08;;;13.55;;
29574;SDS011;16507;51.046;6.406;2022-12-07T16:35:07;29.67;;;14.52;;
29574;SDS011;16507;51.046;6.406;2022-12-07T16:37:33;29.52;;;14.00;;
29574;SDS011;16507;51.046;6.406;2022-12-07T16:39:59;25.38;;;12.57;;
29574;SDS011;16507;51.046;6.406;2022-12-07T16:42:25;25.13;;;11.80;;
29574;SDS011;16507;51.046;6.406;2022-12-07T16:44:51;20.63;;;13.07;;
29574;SDS011;16507;51.046;6.406;2022-12-07T16:47:17;21.70;;;11.82;;
29574;SDS011;16507;51.046;6.406;2022-12-07T16:49:42;17.73;;;12.00;;
29574;SDS011;16507;51.046;6.406;2022-12-07T16:52:08;17.35;;;12.02;;
29574;SDS011;16507;51.046;6.406;2022-12-07T16:54:34;19.48;;;12.43;;
29574;SDS011;16507;51.046;6.406;2022-12-07T16:57:00;19.27;;;12.52;;
29574;SDS011;16507;51.046;6.406;2022-12-07T16:59:26;22.27;;;12.98;;
29574;SDS011;16507;51.046;6.406;2022-12-07T17:01:52;17.55;;;12.15;;
29574;SDS011;16507;51.046;6.406;2022-12-07T17:04:17;19.02;;;12.75;;
29574;SDS011;16507;51.046;6.406;2022-12-07T17:06:43;27.92;;;12.20;;
29574;SDS011;16507;51.046;6.406;2022-12-07T17:09:08;23.50;;;12.48;;
29574;SDS011;16507;51.046;6.406;2022-12-07T17:11:35;21.23;;;11.63;;
29574;SDS011;16507;51.046;6.406;2022-12-07T17:14:01;20.90;;;11.65;;
29574;SDS011;16507;51.046;6.406;2022-12-07T17:16:45;23.58;;;11.50;;
29574;SDS011;16507;51.046;6.406;2022-12-07T17:19:12;35.63;;;13.18;;
29574;SDS011;16507;51.046;6.406;2022-12-07T17:21:39;20.23;;;12.32;;
29574;SDS011;16507;51.046;6.406;2022-12-07T17:24:06;21.75;;;11.48;;
29574;SDS011;16507;51.046;6.406;2022-12-07T17:26:34;31.10;;;13.50;;
29574;SDS011;16507;51.046;6.406;2022-12-07T17:29:00;19.83;;;11.82;;
29574;SDS011;16507;51.046;6.406;2022-12-07T17:31:26;18.85;;;11.60;;
29574;SDS011;16507;51.046;6.406;2022-12-07T17:33:51;14.20;;;9.75;;
29574;SDS011;16507;51.046;6.406;2022-12-07T17:36:21;25.70;;;11.45;;
29574;SDS011;16507;51.046;6.406;2022-12-07T17:38:49;16.27;;;10.30;;
29574;SDS011;16507;51.046;6.406;2022-12-07T17:41:19;25.35;;;11.02;;
29574;SDS011;16507;51.046;6.406;2022-12-07T17:44:06;13.70;;;11.00;;
29574;SDS011;16507;51.046;6.406;2022-12-07T17:46:34;20.52;;;12.18;;
29574;SDS011;16507;51.046;6.406;2022-12-07T17:49:00;21.40;;;13.15;;
29574;SDS011;16507;51.046;6.406;2022-12-07T17:51:27;27.85;;;15.30;;
29574;SDS011;16507;51.046;6.406;2022-12-07T17:54:11;30.00;;;14.52;;
29574;SDS011;16507;51.046;6.406;2022-12-07T17:56:37;23.63;;;13.05;;
29574;SDS011;16507;51.046;6.406;2022-12-07T17:59:03;26.67;;;13.43;;
29574;SDS011;16507;51.046;6.406;2022-12-07T18:01:30;30.10;;;14.05;;
29574;SDS011;16507;51.046;6.406;2022-12-07T18:03:55;20.38;;;13.02;;
29574;SDS011;16507;51.046;6.406;2022-12-07T18:06:21;19.75;;;13.07;;
29574;SDS011;16507;51.046;6.406;2022-12-07T18:08:47;21.13;;;12.68;;
29574;SDS011;16507;51.046;6.406;2022-12-07T18:11:12;25.77;;;14.20;;
29574;SDS011;16507;51.046;6.406;2022-12-07T18:13:38;21.60;;;12.77;;
29574;SDS011;16507;51.046;6.406;2022-12-07T18:16:05;21.25;;;13.63;;
29574;SDS011;16507;51.046;6.406;2022-12-07T18:18:33;21.25;;;13.43;;
29574;SDS011;16507;51.046;6.406;2022-12-07T18:21:01;28.20;;;13.77;;
29574;SDS011;16507;51.046;6.406;2022-12-07T18:23:28;21.33;;;14.45;;
29574;SDS011;16507;51.046;6.406;2022-12-07T18:25:54;22.63;;;14.27;;
29574;SDS011;16507;51.046;6.406;2022-12-07T18:28:19;28.88;;;15.23;;
29574;SDS011;16507;51.046;6.406;2022-12-07T18:30:45;29.33;;;15.90;;
29574;SDS011;16507;51.046;6.406;2022-12-07T18:33:17;19.85;;;14.63;;
29574;SDS011;16507;51.046;6.406;2022-12-07T18:35:43;30.33;;;15.02;;
29574;SDS011;16507;51.046;6.406;2022-12-07T18:38:08;27.63;;;16.35;;
29574;SDS011;16507;51.046;6.406;2022-12-07T18:40:37;26.65;;;16.35;;